createdAt,value
2022-08-09T00:00:01.070Z,1010
2022-08-09T00:01:00.336Z,1010.1
2022-08-09T00:02:03.758Z,1010
2022-08-09T00:03:10.949Z,1010
2022-08-09T00:04:11.206Z,1010
2022-08-09T00:06:16.983Z,1010
2022-08-09T00:06:17.254Z,1010
2022-08-09T00:07:13.268Z,1010
2022-08-09T00:08:31.805Z,1010.1
2022-08-09T00:09:17.308Z,1010.1
2022-08-09T00:10:21.653Z,1010.1
2022-08-09T00:11:24.715Z,1010.1
2022-08-09T00:12:23.952Z,1010.1
2022-08-09T00:13:25.352Z,1010.1
2022-08-09T00:14:30.665Z,1010.1
2022-08-09T00:15:35.726Z,1010.1
2022-08-09T00:16:36.553Z,1010.1
2022-08-09T00:18:04.968Z,1010.1
2022-08-09T00:18:35.660Z,1010
2022-08-09T00:19:38.125Z,1010
2022-08-09T00:20:41.605Z,1010
2022-08-09T00:21:43.315Z,1010
2022-08-09T00:22:44.821Z,1010.1
2022-08-09T00:23:54.239Z,1010
2022-08-09T00:24:47.587Z,1010
2022-08-09T00:25:51.732Z,1010
2022-08-09T00:26:52.423Z,1010
2022-08-09T00:27:54.299Z,1010.1
2022-08-09T00:28:56.358Z,1010
2022-08-09T00:30:16.661Z,1010.1
2022-08-09T00:31:00.327Z,1010.1
2022-08-09T00:32:02.842Z,1010.1
2022-08-09T00:33:04.347Z,1010
2022-08-09T00:34:06.352Z,1010
2022-08-09T00:35:08.390Z,1010
2022-08-09T00:36:10.342Z,1010
2022-08-09T00:37:13.030Z,1010
2022-08-09T00:38:15.111Z,1010
2022-08-09T00:39:16.818Z,1010
2022-08-09T00:40:19.779Z,1010
2022-08-09T00:44:08.654Z,1010
2022-08-09T00:44:18.813Z,1010
2022-08-09T00:45:03.690Z,1010
2022-08-09T00:46:02.377Z,1010
2022-08-09T00:47:05.910Z,1010
2022-08-09T00:48:06.348Z,1010
2022-08-09T00:49:08.340Z,1010
2022-08-09T00:50:14.378Z,1010
2022-08-09T00:51:12.896Z,1010
2022-08-09T00:52:16.156Z,1010
2022-08-09T00:53:16.356Z,1010
2022-08-09T00:54:18.337Z,1010
2022-08-09T00:55:33.089Z,1010
2022-08-09T00:56:22.352Z,1010
2022-08-09T00:57:24.867Z,1010
2022-08-09T00:58:27.758Z,1010
2022-08-09T00:59:40.321Z,1010.1
2022-08-09T01:00:30.983Z,1010.1
2022-08-09T01:01:32.616Z,1010.1
2022-08-09T01:02:34.539Z,1010.1
2022-08-09T01:03:36.507Z,1010.1
2022-08-09T01:04:38.378Z,1010.1
2022-08-09T01:05:50.850Z,1010.1
2022-08-09T01:06:53.708Z,1010.1
2022-08-09T01:07:59.854Z,1010.1
2022-08-09T01:08:48.959Z,1010.1
2022-08-09T01:09:48.365Z,1010.1
2022-08-09T01:10:51.286Z,1010
2022-08-09T01:11:53.062Z,1010
2022-08-09T01:12:54.370Z,1010
2022-08-09T01:13:58.724Z,1010.1
2022-08-09T01:14:58.381Z,1010.1
2022-08-09T01:16:00.475Z,1010.1
2022-08-09T01:17:02.377Z,1010.1
2022-08-09T01:18:04.683Z,1010.1
2022-08-09T01:19:06.430Z,1010.1
2022-08-09T01:20:08.429Z,1010.1
2022-08-09T01:21:10.406Z,1010.1
2022-08-09T01:22:12.538Z,1010.1
2022-08-09T01:24:00.584Z,1010.1
2022-08-09T01:24:16.392Z,1010
2022-08-09T01:25:19.076Z,1010
2022-08-09T01:26:20.388Z,1010
2022-08-09T01:27:22.416Z,1010.1
2022-08-09T01:28:25.367Z,1010.1
2022-08-09T01:29:28.002Z,1010.1
2022-08-09T01:30:35.608Z,1010
2022-08-09T01:31:40.938Z,1010
2022-08-09T01:32:34.393Z,1010.1
2022-08-09T01:33:34.425Z,1010.1
2022-08-09T01:34:36.481Z,1010
2022-08-09T01:35:39.158Z,1010.1
2022-08-09T01:36:40.425Z,1010.1
2022-08-09T01:37:42.980Z,1010.1
2022-08-09T01:38:46.515Z,1010.1
2022-08-09T01:39:46.526Z,1010.1
2022-08-09T01:40:52.605Z,1010
2022-08-09T01:41:53.297Z,1010
2022-08-09T01:42:52.422Z,1010
2022-08-09T01:43:54.423Z,1010
2022-08-09T01:44:56.447Z,1010.1
2022-08-09T01:45:58.488Z,1010.1
2022-08-09T01:47:00.401Z,1010.1
2022-08-09T01:48:05.828Z,1010.1
2022-08-09T01:49:09.940Z,1010.1
2022-08-09T01:50:06.620Z,1010.1
2022-08-09T01:51:08.459Z,1010.1
2022-08-09T01:52:10.435Z,1010.1
2022-08-09T01:53:19.063Z,1010.2
2022-08-09T01:54:14.450Z,1010.2
2022-08-09T01:55:16.435Z,1010.2
2022-08-09T01:56:18.432Z,1010.2
2022-08-09T01:57:20.750Z,1010.2
2022-08-09T01:58:23.912Z,1010.2
2022-08-09T01:59:24.447Z,1010.2
2022-08-09T02:00:34.414Z,1010.2
2022-08-09T02:01:30.717Z,1010.2
2022-08-09T02:02:31.349Z,1010.1
2022-08-09T02:03:32.948Z,1010.1
2022-08-09T02:04:34.478Z,1010.1
2022-08-09T02:05:38.271Z,1010.2
2022-08-09T02:06:38.516Z,1010.2
2022-08-09T02:08:36.148Z,1010.1
2022-08-09T02:08:57.467Z,1010.2
2022-08-09T02:09:44.504Z,1010.1
2022-08-09T02:10:50.677Z,1010.1
2022-08-09T02:11:48.474Z,1010.2
2022-08-09T02:12:50.504Z,1010.1
2022-08-09T02:13:55.171Z,1010.1
2022-08-09T02:14:54.489Z,1010.1
2022-08-09T02:15:56.547Z,1010.1
2022-08-09T02:16:59.373Z,1010.1
2022-08-09T02:18:10.149Z,1010.1
2022-08-09T02:19:02.483Z,1010.1
2022-08-09T02:20:04.600Z,1010.2
2022-08-09T02:21:06.557Z,1010.2
2022-08-09T02:22:08.508Z,1010.1
2022-08-09T02:23:10.702Z,1010.1
2022-08-09T02:24:12.472Z,1010.1
2022-08-09T02:25:15.000Z,1010.1
2022-08-09T02:26:24.724Z,1010.1
2022-08-09T02:27:18.638Z,1010.1
2022-08-09T02:28:20.717Z,1010.1
2022-08-09T02:29:22.507Z,1010
2022-08-09T02:30:25.374Z,1010
2022-08-09T02:31:26.560Z,1010
2022-08-09T02:32:28.498Z,1010
2022-08-09T02:33:37.544Z,1010
2022-08-09T02:34:40.039Z,1010
2022-08-09T02:36:02.188Z,1010
2022-08-09T02:36:37.546Z,1010
2022-08-09T02:37:38.533Z,1010
2022-08-09T02:38:40.724Z,1010
2022-08-09T02:39:45.294Z,1010
2022-08-09T02:40:44.571Z,1010
2022-08-09T02:41:46.505Z,1010
2022-08-09T02:42:50.952Z,1010
2022-08-09T02:43:53.659Z,1010
2022-08-09T02:44:52.542Z,1010
2022-08-09T02:45:54.551Z,1010
2022-08-09T02:46:56.521Z,1010
2022-08-09T02:47:59.498Z,1010
2022-08-09T02:49:00.539Z,1010
2022-08-09T02:50:02.701Z,1010
2022-08-09T02:51:04.564Z,1010
2022-08-09T02:52:06.559Z,1010
2022-08-09T02:53:08.600Z,1010
2022-08-09T02:54:10.568Z,1010.1
2022-08-09T02:55:20.491Z,1010
2022-08-09T02:56:14.529Z,1010
2022-08-09T02:57:23.044Z,1010
2022-08-09T02:58:33.267Z,1010
2022-08-09T02:59:26.016Z,1010.1
2022-08-09T03:00:25.363Z,1010.1
2022-08-09T03:01:29.742Z,1010.1
2022-08-09T03:02:26.555Z,1010
2022-08-09T03:03:37.441Z,1010.1
2022-08-09T03:04:30.699Z,1010
2022-08-09T03:05:34.323Z,1010.1
2022-08-09T03:06:34.551Z,1010
2022-08-09T03:07:36.549Z,1010
2022-08-09T03:08:39.071Z,1010
2022-08-09T03:09:42.749Z,1010
2022-08-09T03:10:42.582Z,1010
2022-08-09T03:12:06.942Z,1010
2022-08-09T03:12:49.323Z,1010
2022-08-09T03:13:59.570Z,1010.1
2022-08-09T03:14:50.566Z,1010.1
2022-08-09T03:16:04.430Z,1010.1
2022-08-09T03:16:54.627Z,1010.1
2022-08-09T03:17:57.861Z,1010
2022-08-09T03:18:58.605Z,1010
2022-08-09T03:20:03.069Z,1010
2022-08-09T03:21:02.598Z,1010
2022-08-09T03:22:04.570Z,1009.9
2022-08-09T03:23:14.904Z,1010
2022-08-09T03:24:10.028Z,1010
2022-08-09T03:25:22.040Z,1010
2022-08-09T03:26:13.078Z,1010
2022-08-09T03:27:14.599Z,1010
2022-08-09T03:28:16.593Z,1010
2022-08-09T03:29:22.553Z,1010
2022-08-09T03:30:28.159Z,1010
2022-08-09T03:31:22.911Z,1010
2022-08-09T03:32:24.644Z,1010
2022-08-09T03:33:26.594Z,1010
2022-08-09T03:34:28.589Z,1010
2022-08-09T03:35:44.540Z,1010
2022-08-09T03:36:32.633Z,1010
2022-08-09T03:37:54.237Z,1010
2022-08-09T03:38:37.217Z,1010
2022-08-09T03:39:38.662Z,1010
2022-08-09T03:40:40.599Z,1010
2022-08-09T03:41:46.122Z,1010
2022-08-09T03:42:44.620Z,1010
2022-08-09T03:43:52.068Z,1010
2022-08-09T03:44:48.619Z,1010.1
2022-08-09T03:46:02.913Z,1010
2022-08-09T03:46:52.664Z,1010.1
2022-08-09T03:47:54.621Z,1010.1
2022-08-09T03:48:56.681Z,1010
2022-08-09T03:49:59.014Z,1010
2022-08-09T03:51:00.625Z,1010.1
2022-08-09T03:52:03.612Z,1010.1
2022-08-09T03:53:04.656Z,1010.1
2022-08-09T03:54:06.648Z,1010.1
2022-08-09T03:55:09.722Z,1010.1
2022-08-09T03:56:10.643Z,1010.1
2022-08-09T03:57:18.234Z,1010.2
2022-08-09T03:58:15.018Z,1010.2
2022-08-09T03:59:17.351Z,1010.2
2022-08-09T04:00:18.636Z,1010.2
2022-08-09T04:01:20.703Z,1010.2
2022-08-09T04:02:26.370Z,1010.2
2022-08-09T04:03:35.646Z,1010.2
2022-08-09T04:04:26.649Z,1010.2
2022-08-09T04:05:28.641Z,1010.3
2022-08-09T04:06:30.643Z,1010.2
2022-08-09T04:07:34.068Z,1010.3
2022-08-09T04:08:34.655Z,1010.3
2022-08-09T04:09:42.404Z,1010.3
2022-08-09T04:10:38.697Z,1010.3
2022-08-09T04:11:40.739Z,1010.3
2022-08-09T04:12:44.468Z,1010.3
2022-08-09T04:13:45.180Z,1010.3
2022-08-09T04:14:53.647Z,1010.3
2022-08-09T04:16:18.982Z,1010.3
2022-08-09T04:16:50.677Z,1010.2
2022-08-09T04:17:52.730Z,1010.3
2022-08-09T04:18:54.695Z,1010.3
2022-08-09T04:19:56.735Z,1010.2
2022-08-09T04:20:58.661Z,1010.2
2022-08-09T04:22:00.708Z,1010.3
2022-08-09T04:23:02.761Z,1010.3
2022-08-09T04:24:04.685Z,1010.2
2022-08-09T04:25:06.686Z,1010.2
2022-08-09T04:26:08.680Z,1010.2
2022-08-09T04:27:10.706Z,1010.2
2022-08-09T04:28:12.750Z,1010.2
2022-08-09T04:29:15.716Z,1010.2
2022-08-09T04:30:16.705Z,1010.3
2022-08-09T04:31:18.686Z,1010.3
2022-08-09T04:32:23.636Z,1010.3
2022-08-09T04:33:22.719Z,1010.3
2022-08-09T04:34:30.846Z,1010.3
2022-08-09T04:35:26.697Z,1010.3
2022-08-09T04:36:28.707Z,1010.3
2022-08-09T04:37:41.977Z,1010.3
2022-08-09T04:38:32.728Z,1010.3
2022-08-09T04:39:40.475Z,1010.3
2022-08-09T04:40:36.846Z,1010.3
2022-08-09T04:41:43.482Z,1010.3
2022-08-09T04:42:40.795Z,1010.3
2022-08-09T04:43:46.455Z,1010.3
2022-08-09T04:44:49.222Z,1010.4
2022-08-09T04:45:52.910Z,1010.4
2022-08-09T04:46:57.843Z,1010.3
2022-08-09T04:47:59.585Z,1010.3
2022-08-09T04:48:57.813Z,1010.3
2022-08-09T04:49:55.755Z,1010.3
2022-08-09T04:50:56.754Z,1010.3
2022-08-09T04:51:58.752Z,1010.3
2022-08-09T04:53:00.707Z,1010.4
2022-08-09T04:54:02.944Z,1010.4
2022-08-09T04:55:07.656Z,1010.4
2022-08-09T04:56:06.716Z,1010.4
2022-08-09T04:57:09.259Z,1010.4
2022-08-09T04:58:10.775Z,1010.5
2022-08-09T04:59:13.057Z,1010.4
2022-08-09T05:00:16.581Z,1010.5
2022-08-09T05:01:18.677Z,1010.5
2022-08-09T05:02:18.735Z,1010.5
2022-08-09T05:03:30.353Z,1010.5
2022-08-09T05:04:22.885Z,1010.6
2022-08-09T05:05:31.660Z,1010.6
2022-08-09T05:06:28.549Z,1010.6
2022-08-09T05:07:29.410Z,1010.6
2022-08-09T05:08:30.747Z,1010.6
2022-08-09T05:09:41.948Z,1010.5
2022-08-09T05:10:36.689Z,1010.5
2022-08-09T05:11:36.835Z,1010.5
2022-08-09T05:12:38.993Z,1010.6
2022-08-09T05:13:40.752Z,1010.6
2022-08-09T05:14:42.792Z,1010.6
2022-08-09T05:15:48.285Z,1010.6
2022-08-09T05:16:58.706Z,1010.6
2022-08-09T05:18:40.122Z,1010.6
2022-08-09T05:18:57.884Z,1010.7
2022-08-09T05:19:56.530Z,1010.7
2022-08-09T05:20:54.764Z,1010.7
2022-08-09T05:21:56.769Z,1010.7
2022-08-09T05:23:50.764Z,1010.7
2022-08-09T05:24:01.801Z,1010.7
2022-08-09T05:25:02.900Z,1010.7
2022-08-09T05:26:04.813Z,1010.7
2022-08-09T05:27:06.782Z,1010.7
2022-08-09T05:28:08.778Z,1010.7
2022-08-09T05:29:17.161Z,1010.7
2022-08-09T05:30:12.847Z,1010.7
2022-08-09T05:31:14.774Z,1010.7
2022-08-09T05:32:16.781Z,1010.7
2022-08-09T05:33:18.775Z,1010.7
2022-08-09T05:34:20.864Z,1010.7
2022-08-09T05:35:22.778Z,1010.7
2022-08-09T05:36:26.486Z,1010.7
2022-08-09T05:37:26.787Z,1010.7
2022-08-09T05:38:28.792Z,1010.7
2022-08-09T05:39:35.607Z,1010.7
2022-08-09T05:40:32.806Z,1010.7
2022-08-09T05:41:34.845Z,1010.8
2022-08-09T05:42:37.096Z,1010.8
2022-08-09T05:43:38.806Z,1010.8
2022-08-09T05:44:40.868Z,1010.7
2022-08-09T05:45:43.731Z,1010.7
2022-08-09T05:46:44.832Z,1010.7
2022-08-09T05:47:51.913Z,1010.7
2022-08-09T05:48:48.803Z,1010.7
2022-08-09T05:50:24.657Z,1010.7
2022-08-09T05:51:11.936Z,1010.7
2022-08-09T05:51:55.867Z,1010.8
2022-08-09T05:52:57.849Z,1010.8
2022-08-09T05:53:59.828Z,1010.8
2022-08-09T05:55:02.938Z,1010.8
2022-08-09T05:56:03.843Z,1010.8
2022-08-09T05:57:06.289Z,1010.8
2022-08-09T05:58:07.853Z,1010.8
2022-08-09T05:59:10.540Z,1010.8
2022-08-09T06:00:11.956Z,1010.8
2022-08-09T06:01:15.774Z,1010.8
2022-08-09T06:02:16.881Z,1010.8
2022-08-09T06:03:19.785Z,1010.8
2022-08-09T06:04:23.261Z,1010.8
2022-08-09T06:05:30.503Z,1010.8
2022-08-09T06:06:23.837Z,1010.8
2022-08-09T06:07:25.882Z,1010.8
2022-08-09T06:08:27.829Z,1010.8
2022-08-09T06:09:41.035Z,1010.8
2022-08-09T06:10:31.842Z,1010.9
2022-08-09T06:11:40.667Z,1010.9
2022-08-09T06:12:37.155Z,1010.8
2022-08-09T06:13:38.911Z,1010.8
2022-08-09T06:14:41.064Z,1010.8
2022-08-09T06:15:52.971Z,1010.8
2022-08-09T06:16:53.859Z,1010.9
2022-08-09T06:17:55.898Z,1010.9
2022-08-09T06:18:57.926Z,1010.9
2022-08-09T06:19:59.858Z,1010.8
2022-08-09T06:21:02.103Z,1010.9
2022-08-09T06:22:03.861Z,1010.9
2022-08-09T06:23:06.772Z,1010.9
2022-08-09T06:24:08.942Z,1010.9
2022-08-09T06:25:12.393Z,1010.9
2022-08-09T06:26:12.876Z,1010.9
2022-08-09T06:27:15.491Z,1010.9
2022-08-09T06:28:16.885Z,1010.9
2022-08-09T06:29:18.949Z,1010.9
2022-08-09T06:30:21.189Z,1010.9
2022-08-09T06:31:30.931Z,1010.9
2022-08-09T06:32:53.671Z,1010.9
2022-08-09T06:33:30.669Z,1010.9
2022-08-09T06:34:29.956Z,1010.9
2022-08-09T06:35:35.972Z,1010.9
2022-08-09T06:36:32.895Z,1010.9
2022-08-09T06:37:49.775Z,1010.8
2022-08-09T06:38:37.572Z,1010.9
2022-08-09T06:39:48.894Z,1010.9
2022-08-09T06:40:41.024Z,1010.9
2022-08-09T06:42:08.351Z,1010.9
2022-08-09T06:42:46.711Z,1010.9
2022-08-09T06:43:46.928Z,1011
2022-08-09T06:44:51.739Z,1011
2022-08-09T06:46:05.622Z,1010.9
2022-08-09T06:46:54.938Z,1010.9
2022-08-09T06:47:58.112Z,1010.9
2022-08-09T06:49:00.269Z,1010.9
2022-08-09T06:50:12.361Z,1011
2022-08-09T06:51:05.095Z,1011
2022-08-09T06:52:07.876Z,1011
2022-08-09T06:53:08.933Z,1011
2022-08-09T06:54:12.508Z,1011
2022-08-09T06:55:13.527Z,1011
2022-08-09T06:56:15.023Z,1011
2022-08-09T06:57:18.929Z,1011
2022-08-09T06:58:28.517Z,1011
2022-08-09T07:00:48.152Z,1011
2022-08-09T07:00:48.515Z,1011
2022-08-09T07:01:35.816Z,1011.1
2022-08-09T07:02:32.008Z,1011.1
2022-08-09T07:03:32.929Z,1011.1
2022-08-09T07:04:34.933Z,1011.1
2022-08-09T07:05:53.554Z,1011.1
2022-08-09T07:06:38.986Z,1011.1
2022-08-09T07:07:59.309Z,1011.1
2022-08-09T07:08:44.541Z,1011.1
2022-08-09T07:09:54.106Z,1011.2
2022-08-09T07:10:47.956Z,1011.2
2022-08-09T07:11:51.884Z,1011.2
2022-08-09T07:12:57.031Z,1011.2
2022-08-09T07:14:04.738Z,1011.2
2022-08-09T07:14:58.872Z,1011.2
2022-08-09T07:16:40.087Z,1011.2
2022-08-09T07:17:05.497Z,1011.2
2022-08-09T07:18:10.218Z,1011.2
2022-08-09T07:19:09.966Z,1011.2
2022-08-09T07:20:11.972Z,1011.2
2022-08-09T07:21:14.788Z,1011.2
2022-08-09T07:22:18.307Z,1011.2
2022-08-09T07:23:21.318Z,1011.2
2022-08-09T07:24:31.748Z,1011.2
2022-08-09T07:25:25.159Z,1011.3
2022-08-09T07:26:27.956Z,1011.3
2022-08-09T07:27:33.696Z,1011.3
2022-08-09T07:28:34.578Z,1011.3
2022-08-09T07:29:37.861Z,1011.3
2022-08-09T07:30:38.042Z,1011.3
2022-08-09T07:31:45.096Z,1011.3
2022-08-09T07:32:42.244Z,1011.3
2022-08-09T07:33:52.420Z,1011.3
2022-08-09T07:34:46.080Z,1011.3
2022-08-09T07:35:53.266Z,1011.3
2022-08-09T07:36:52.812Z,1011.3
2022-08-09T07:37:59.275Z,1011.4
2022-08-09T07:39:00.670Z,1011.4
2022-08-09T07:39:59.810Z,1011.4
2022-08-09T07:41:11.319Z,1011.4
2022-08-09T07:42:05.047Z,1011.4
2022-08-09T07:43:07.122Z,1011.4
2022-08-09T07:44:08.035Z,1011.4
2022-08-09T07:45:15.145Z,1011.4
2022-08-09T07:46:12.019Z,1011.4
2022-08-09T07:47:15.730Z,1011.4
2022-08-09T07:48:22.740Z,1011.5
2022-08-09T07:50:32.553Z,1011.5
2022-08-09T07:52:04.051Z,1011.5
2022-08-09T07:52:31.303Z,1011.6
2022-08-09T07:53:36.299Z,1011.6
2022-08-09T07:54:35.025Z,1011.5
2022-08-09T07:55:41.791Z,1011.5
2022-08-09T07:56:44.803Z,1011.5
2022-08-09T07:57:46.476Z,1011.6
2022-08-09T07:58:44.070Z,1011.5
2022-08-09T07:59:50.973Z,1011.5
2022-08-09T08:00:55.856Z,1011.5
2022-08-09T08:01:52.954Z,1011.5
2022-08-09T08:02:54.900Z,1011.5
2022-08-09T08:03:57.038Z,1011.4
2022-08-09T08:04:59.032Z,1011.4
2022-08-09T08:06:01.096Z,1011.4
2022-08-09T08:07:09.837Z,1011.3
2022-08-09T08:08:44.770Z,1011.3
2022-08-09T08:09:18.315Z,1011.4
2022-08-09T08:10:12.154Z,1011.4
2022-08-09T08:12:03.508Z,1011.4
2022-08-09T08:12:25.323Z,1011.4
2022-08-09T08:13:18.086Z,1011.4
2022-08-09T08:14:20.989Z,1011.4
2022-08-09T08:15:23.319Z,1011.5
2022-08-09T08:16:29.436Z,1011.4
2022-08-09T08:17:35.622Z,1011.4
2022-08-09T08:18:28.102Z,1011.4
2022-08-09T08:19:31.317Z,1011.5
2022-08-09T08:20:33.226Z,1011.4
2022-08-09T08:21:34.204Z,1011.4
2022-08-09T08:22:36.143Z,1011.4
2022-08-09T08:23:38.086Z,1011.4
2022-08-09T08:24:41.191Z,1011.4
2022-08-09T08:25:44.223Z,1011.4
2022-08-09T08:26:55.385Z,1011.4
2022-08-09T08:27:46.150Z,1011.4
2022-08-09T08:28:48.088Z,1011.4
2022-08-09T08:29:52.361Z,1011.4
2022-08-09T08:30:52.160Z,1011.4
2022-08-09T08:31:56.611Z,1011.5
2022-08-09T08:32:56.091Z,1011.5
2022-08-09T08:33:58.108Z,1011.5
2022-08-09T08:35:00.095Z,1011.5
2022-08-09T08:36:03.648Z,1011.5
2022-08-09T08:37:04.091Z,1011.5
2022-08-09T08:38:10.631Z,1011.5
2022-08-09T08:39:10.480Z,1011.5
2022-08-09T08:40:10.106Z,1011.5
2022-08-09T08:41:12.167Z,1011.5
2022-08-09T08:42:14.107Z,1011.5
2022-08-09T08:43:16.112Z,1011.5
2022-08-09T08:44:22.912Z,1011.6
2022-08-09T08:45:36.919Z,1011.5
2022-08-09T08:46:35.402Z,1011.5
2022-08-09T08:47:33.103Z,1011.5
2022-08-09T08:48:35.147Z,1011.6
2022-08-09T08:49:38.743Z,1011.6
2022-08-09T08:50:39.125Z,1011.6
2022-08-09T08:51:41.799Z,1011.6
2022-08-09T08:53:00.396Z,1011.6
2022-08-09T08:54:02.875Z,1011.6
2022-08-09T08:54:47.734Z,1011.6
2022-08-09T08:55:49.130Z,1011.6
2022-08-09T08:56:51.159Z,1011.6
2022-08-09T08:57:56.101Z,1011.6
2022-08-09T08:58:55.140Z,1011.6
2022-08-09T08:59:57.468Z,1011.6
2022-08-09T09:00:59.120Z,1011.5
2022-08-09T09:02:01.397Z,1011.6
2022-08-09T09:03:08.453Z,1011.5
2022-08-09T09:04:05.149Z,1011.6
2022-08-09T09:05:10.046Z,1011.6
2022-08-09T09:06:10.045Z,1011.6
2022-08-09T09:07:12.137Z,1011.6
2022-08-09T09:08:29.440Z,1011.6
2022-08-09T09:09:21.379Z,1011.6
2022-08-09T09:10:18.179Z,1011.6
2022-08-09T09:11:20.183Z,1011.6
2022-08-09T09:12:22.157Z,1011.6
2022-08-09T09:13:24.720Z,1011.5
2022-08-09T09:14:26.185Z,1011.5
2022-08-09T09:15:28.976Z,1011.5
2022-08-09T09:16:32.100Z,1011.5
2022-08-09T09:17:46.428Z,1011.6
2022-08-09T09:18:34.183Z,1011.6
2022-08-09T09:19:41.031Z,1011.6
2022-08-09T09:20:38.203Z,1011.6
2022-08-09T09:21:43.085Z,1011.6
2022-08-09T09:22:42.194Z,1011.6
2022-08-09T09:23:48.945Z,1011.6
2022-08-09T09:24:46.219Z,1011.6
2022-08-09T09:26:02.618Z,1011.6
2022-08-09T09:26:50.177Z,1011.6
2022-08-09T09:28:04.925Z,1011.6
2022-08-09T09:29:02.722Z,1011.6
2022-08-09T09:30:26.076Z,1011.6
2022-08-09T09:30:58.263Z,1011.6
2022-08-09T09:32:04.160Z,1011.6
2022-08-09T09:33:02.218Z,1011.6
2022-08-09T09:34:04.245Z,1011.6
2022-08-09T09:35:07.768Z,1011.6
2022-08-09T09:36:11.862Z,1011.6
2022-08-09T09:37:12.935Z,1011.6
2022-08-09T09:38:18.366Z,1011.6
2022-08-09T09:39:14.243Z,1011.6
2022-08-09T09:40:17.663Z,1011.6
2022-08-09T09:41:18.245Z,1011.6
2022-08-09T09:42:20.317Z,1011.6
2022-08-09T09:43:22.213Z,1011.6
2022-08-09T09:44:25.224Z,1011.6
2022-08-09T09:45:29.681Z,1011.6
2022-08-09T09:46:46.274Z,1011.6
2022-08-09T09:47:32.600Z,1011.6
2022-08-09T09:48:33.218Z,1011.6
2022-08-09T09:49:56.560Z,1011.6
2022-08-09T09:50:37.274Z,1011.6
2022-08-09T09:51:40.364Z,1011.6
2022-08-09T09:52:41.274Z,1011.6
2022-08-09T09:53:44.088Z,1011.6
2022-08-09T09:54:48.554Z,1011.5
2022-08-09T09:55:47.237Z,1011.6
2022-08-09T09:56:53.496Z,1011.6
2022-08-09T09:58:00.485Z,1011.5
2022-08-09T09:58:53.458Z,1011.5
2022-08-09T09:59:55.233Z,1011.5
2022-08-09T10:00:58.672Z,1011.5
2022-08-09T10:01:59.270Z,1011.5
2022-08-09T10:03:09.038Z,1011.5
2022-08-09T10:04:08.829Z,1011.5
2022-08-09T10:05:06.580Z,1011.5
2022-08-09T10:06:06.658Z,1011.4
2022-08-09T10:07:09.906Z,1011.4
2022-08-09T10:08:11.236Z,1011.4
2022-08-09T10:09:21.918Z,1011.5
2022-08-09T10:10:13.654Z,1011.4
2022-08-09T10:11:39.726Z,1011.4
2022-08-09T10:12:28.738Z,1011.4
2022-08-09T10:13:23.273Z,1011.3
2022-08-09T10:14:17.652Z,1011.2
2022-08-09T10:15:25.467Z,1011.2
2022-08-09T10:16:56.396Z,1011.2
2022-08-09T10:17:24.461Z,1011.4
2022-08-09T10:18:24.302Z,1011.4
2022-08-09T10:19:27.105Z,1011.4
2022-08-09T10:20:35.981Z,1011.3
2022-08-09T10:21:35.709Z,1011.4
2022-08-09T10:22:36.676Z,1011.4
2022-08-09T10:23:38.305Z,1011.5
2022-08-09T10:24:40.308Z,1011.4
2022-08-09T10:26:04.520Z,1011.4
2022-08-09T10:26:44.002Z,1011.3
2022-08-09T10:27:57.376Z,1011.3
2022-08-09T10:28:48.889Z,1011.2
2022-08-09T10:30:16.443Z,1011.3
2022-08-09T10:32:53.646Z,1011.2
2022-08-09T10:34:05.088Z,1011.2
2022-08-09T10:34:56.673Z,1011.2
2022-08-09T10:35:57.747Z,1011.3
2022-08-09T10:36:59.319Z,1011.4
2022-08-09T10:38:00.871Z,1011.3
2022-08-09T10:39:02.366Z,1011.3
2022-08-09T10:40:03.808Z,1011.2
2022-08-09T10:41:04.826Z,1011.2
2022-08-09T10:42:05.790Z,1011.2
2022-08-09T10:43:08.970Z,1011.2
2022-08-09T10:44:09.389Z,1011.3
2022-08-09T10:45:12.182Z,1011.3
2022-08-09T10:46:18.249Z,1011.3
2022-08-09T10:47:20.346Z,1011.3
2022-08-09T10:48:26.461Z,1011.3
2022-08-09T10:49:16.747Z,1011.3
2022-08-09T10:50:21.024Z,1011.3
2022-08-09T10:51:20.562Z,1011.3
2022-08-09T10:52:21.722Z,1011.2
2022-08-09T10:53:23.597Z,1011.2
2022-08-09T10:54:24.797Z,1011.2
2022-08-09T10:55:26.561Z,1011.2
2022-08-09T10:56:27.739Z,1011.2
2022-08-09T10:57:28.735Z,1011.2
2022-08-09T10:58:29.722Z,1011.2
2022-08-09T10:59:31.742Z,1011.1
2022-08-09T11:00:32.746Z,1011.1
2022-08-09T11:03:03.459Z,1011.1
2022-08-09T11:03:03.648Z,1011.2
2022-08-09T11:03:47.294Z,1011.2
2022-08-09T11:04:36.857Z,1011.2
2022-08-09T11:05:37.775Z,1011.2
2022-08-09T11:06:38.746Z,1011.2
2022-08-09T11:07:54.089Z,1011.2
2022-08-09T11:08:43.881Z,1011.2
2022-08-09T11:09:48.084Z,1011.2
2022-08-09T11:10:47.254Z,1011.1
2022-08-09T11:11:43.751Z,1011.1
2022-08-09T11:12:44.748Z,1011.1
2022-08-09T11:13:49.642Z,1011.1
2022-08-09T11:14:46.816Z,1011.1
2022-08-09T11:15:50.680Z,1011.1
2022-08-09T11:16:48.772Z,1011.1
2022-08-09T11:17:53.136Z,1011.1
2022-08-09T11:18:50.761Z,1011.1
2022-08-09T11:20:08.255Z,1011.1
2022-08-09T11:20:52.801Z,1011.1
2022-08-09T11:21:54.932Z,1011.1
2022-08-09T11:22:55.655Z,1011.1
2022-08-09T11:23:55.782Z,1011.1
2022-08-09T11:24:56.768Z,1011.1
2022-08-09T11:25:57.780Z,1011.1
2022-08-09T11:26:58.771Z,1011.1
2022-08-09T11:28:05.749Z,1011.1
2022-08-09T11:29:00.824Z,1011.1
2022-08-09T11:30:05.448Z,1011.1
2022-08-09T11:31:02.834Z,1011.1
2022-08-09T11:32:03.793Z,1011.1
2022-08-09T11:33:04.793Z,1011.1
2022-08-09T11:34:05.807Z,1011.1
2022-08-09T11:35:06.826Z,1011.1
2022-08-09T11:36:07.895Z,1011.1
2022-08-09T11:37:08.811Z,1011.1
2022-08-09T11:38:09.804Z,1011.1
2022-08-09T11:39:11.067Z,1011.1
2022-08-09T11:40:12.022Z,1011.1
2022-08-09T11:41:13.275Z,1011.1
2022-08-09T11:42:14.771Z,1011.1
2022-08-09T11:43:14.848Z,1011.1
2022-08-09T11:44:15.798Z,1011.1
2022-08-09T11:45:16.884Z,1011
2022-08-09T11:46:18.589Z,1011.1
2022-08-09T11:47:18.826Z,1011
2022-08-09T11:48:24.827Z,1011
2022-08-09T11:49:27.938Z,1011
2022-08-09T11:50:52.831Z,1011
2022-08-09T11:52:49.891Z,1011
2022-08-09T11:52:49.893Z,1011.1
2022-08-09T11:54:00.163Z,1011
2022-08-09T11:54:28.325Z,1011
2022-08-09T11:55:35.224Z,1011
2022-08-09T11:56:42.079Z,1011
2022-08-09T11:57:47.201Z,1011
2022-08-09T11:58:32.869Z,1011
2022-08-09T11:59:33.855Z,1011
2022-08-09T12:00:34.425Z,1011.1
2022-08-09T12:01:37.959Z,1011
2022-08-09T12:02:52.501Z,1011.1
2022-08-09T12:03:50.682Z,1011.1
2022-08-09T12:04:39.939Z,1011
2022-08-09T12:05:42.241Z,1011
2022-08-09T12:06:43.090Z,1011.1
2022-08-09T12:07:45.823Z,1011.1
2022-08-09T12:08:46.902Z,1011
2022-08-09T12:09:50.252Z,1011
2022-08-09T12:10:48.888Z,1011
2022-08-09T12:12:02.829Z,1011
2022-08-09T12:12:52.862Z,1011
2022-08-09T12:14:08.615Z,1011
2022-08-09T12:14:59.163Z,1010.9
2022-08-09T12:15:56.911Z,1010.9
2022-08-09T12:16:58.218Z,1011
2022-08-09T12:17:59.054Z,1011
2022-08-09T12:19:00.026Z,1010.9
2022-08-09T12:20:00.887Z,1010.9
2022-08-09T12:21:02.420Z,1010.9
2022-08-09T12:22:03.106Z,1010.9
2022-08-09T12:23:06.969Z,1011
2022-08-09T12:24:09.347Z,1010.9
2022-08-09T12:25:08.934Z,1011
2022-08-09T12:26:09.955Z,1011
2022-08-09T12:28:57.845Z,1011
2022-08-09T12:28:58.073Z,1011
2022-08-09T12:29:30.108Z,1010.9
2022-08-09T12:30:35.963Z,1010.9
2022-08-09T12:31:30.761Z,1010.9
2022-08-09T12:32:18.959Z,1010.9
2022-08-09T12:33:21.114Z,1010.9
2022-08-09T12:34:21.920Z,1010.9
2022-08-09T12:35:22.915Z,1011
2022-08-09T12:36:27.987Z,1010.9
2022-08-09T12:37:29.193Z,1010.9
2022-08-09T12:38:29.479Z,1010.9
2022-08-09T12:39:29.154Z,1010.9
2022-08-09T12:40:29.924Z,1010.8
2022-08-09T12:41:36.608Z,1010.9
2022-08-09T12:42:35.124Z,1010.9
2022-08-09T12:44:04.528Z,1010.9
2022-08-09T12:44:39.562Z,1010.9
2022-08-09T12:45:40.974Z,1010.9
2022-08-09T12:46:41.943Z,1010.9
2022-08-09T12:47:44.274Z,1010.9
2022-08-09T12:48:43.949Z,1010.9
2022-08-09T12:49:51.176Z,1010.9
2022-08-09T12:50:47.936Z,1010.8
2022-08-09T12:51:53.021Z,1010.9
2022-08-09T12:52:58.608Z,1010.9
2022-08-09T12:53:55.033Z,1010.9
2022-08-09T12:55:03.350Z,1010.8
2022-08-09T12:56:13.142Z,1010.8
2022-08-09T12:56:57.838Z,1010.8
2022-08-09T12:57:59.207Z,1010.8
2022-08-09T12:58:59.968Z,1010.8
2022-08-09T13:00:03.578Z,1010.8
2022-08-09T13:01:04.352Z,1010.7
2022-08-09T13:02:03.009Z,1010.7
2022-08-09T13:03:04.009Z,1010.7
2022-08-09T13:04:04.960Z,1010.7
2022-08-09T13:05:07.148Z,1010.7
2022-08-09T13:06:13.354Z,1010.7
2022-08-09T13:07:08.973Z,1010.6